createdAt,value
2019-03-24T00:00:11.456Z,64.17
2019-03-24T00:02:40.001Z,57.93
2019-03-24T00:05:08.567Z,63.00
2019-03-24T00:07:37.033Z,58.10
2019-03-24T00:10:09.062Z,64.13
2019-03-24T00:12:37.529Z,54.67
2019-03-24T00:15:08.178Z,56.17
2019-03-24T00:17:36.720Z,57.23
2019-03-24T00:20:07.254Z,49.13
2019-03-24T00:22:35.734Z,52.97
2019-03-24T00:25:08.344Z,58.30
2019-03-24T00:27:36.826Z,61.53
2019-03-24T00:30:10.195Z,64.37
2019-03-24T00:32:38.661Z,57.50
2019-03-24T00:35:08.308Z,57.57
2019-03-24T00:37:36.778Z,57.67
2019-03-24T00:40:07.023Z,60.07
2019-03-24T00:42:35.488Z,61.20
2019-03-24T00:45:06.436Z,61.43
2019-03-24T00:47:34.907Z,64.23
2019-03-24T00:50:05.343Z,59.87
2019-03-24T00:52:33.821Z,61.10
2019-03-24T00:55:02.319Z,62.60
2019-03-24T00:57:30.790Z,66.27
2019-03-24T00:59:59.290Z,59.57
2019-03-24T01:02:27.761Z,58.87
2019-03-24T01:04:56.254Z,62.73
2019-03-24T01:07:24.801Z,65.63
2019-03-24T01:09:53.301Z,70.00
2019-03-24T01:12:21.789Z,58.10
2019-03-24T01:14:50.349Z,64.60
2019-03-24T01:17:18.783Z,68.60
2019-03-24T01:19:47.346Z,62.23
2019-03-24T01:22:15.797Z,62.73
2019-03-24T01:24:44.324Z,66.80
2019-03-24T01:27:12.876Z,59.47
2019-03-24T01:29:41.389Z,58.43
2019-03-24T01:32:09.869Z,58.07
2019-03-24T01:34:38.378Z,60.33
2019-03-24T01:37:06.883Z,58.27
2019-03-24T01:39:35.394Z,54.60
2019-03-24T01:42:03.971Z,52.60
2019-03-24T01:44:32.464Z,56.47
2019-03-24T01:47:01.007Z,50.10
2019-03-24T01:49:29.509Z,53.17
2019-03-24T01:51:58.003Z,53.37
2019-03-24T01:54:26.464Z,52.37
2019-03-24T01:56:54.953Z,51.03
2019-03-24T01:59:23.426Z,55.40
2019-03-24T02:01:51.918Z,52.43
2019-03-24T02:04:20.391Z,50.07
2019-03-24T02:06:48.876Z,51.20
2019-03-24T02:09:17.343Z,45.87
2019-03-24T02:11:45.830Z,47.70
2019-03-24T02:14:14.297Z,48.67
2019-03-24T02:16:42.832Z,47.43
2019-03-24T02:19:11.266Z,44.97
2019-03-24T02:21:39.758Z,44.80
2019-03-24T02:24:08.224Z,47.07
2019-03-24T02:26:36.719Z,43.67
2019-03-24T02:29:05.190Z,45.33
2019-03-24T02:31:33.686Z,48.07
2019-03-24T02:34:02.151Z,44.37
2019-03-24T02:36:30.639Z,47.87
2019-03-24T02:38:59.101Z,45.43
2019-03-24T02:41:27.597Z,42.67
2019-03-24T02:43:56.074Z,46.17
2019-03-24T02:46:25.215Z,49.87
2019-03-24T02:48:53.805Z,48.53
2019-03-24T02:51:22.300Z,47.07
2019-03-24T02:53:50.770Z,48.03
2019-03-24T02:56:19.266Z,43.03
2019-03-24T02:58:47.724Z,43.57
2019-03-24T03:01:16.219Z,40.60
2019-03-24T03:03:44.715Z,45.07
2019-03-24T03:06:13.194Z,45.57
2019-03-24T03:08:41.659Z,41.53
2019-03-24T03:11:10.234Z,39.83
2019-03-24T03:13:38.704Z,39.60
2019-03-24T03:16:07.200Z,45.47
2019-03-24T03:18:35.665Z,44.13
2019-03-24T03:21:04.331Z,45.93
2019-03-24T03:23:32.869Z,44.40
2019-03-24T03:26:01.356Z,42.73
2019-03-24T03:28:29.893Z,46.23
2019-03-24T03:30:58.393Z,43.43
2019-03-24T03:33:26.901Z,43.23
2019-03-24T03:35:55.401Z,43.80
2019-03-24T03:38:23.857Z,40.20
2019-03-24T03:40:52.370Z,45.33
2019-03-24T03:43:20.825Z,44.60
2019-03-24T03:45:49.316Z,41.60
2019-03-24T03:48:17.805Z,45.33
2019-03-24T03:50:46.281Z,40.37
2019-03-24T03:53:14.753Z,41.30
2019-03-24T03:55:43.248Z,41.87
2019-03-24T03:58:11.709Z,40.70
2019-03-24T04:00:40.267Z,34.10
2019-03-24T04:03:08.805Z,34.43
2019-03-24T04:05:37.292Z,39.63
2019-03-24T04:08:06.096Z,34.77
2019-03-24T04:10:34.658Z,33.23
2019-03-24T04:13:03.154Z,33.87
2019-03-24T04:15:31.592Z,36.10
2019-03-24T04:18:00.093Z,35.40
2019-03-24T04:20:28.562Z,32.27
2019-03-24T04:22:57.051Z,33.27
2019-03-24T04:25:25.520Z,35.00
2019-03-24T04:27:54.006Z,36.00
2019-03-24T04:30:22.474Z,36.17
2019-03-24T04:32:50.960Z,35.07
2019-03-24T04:35:19.435Z,35.13
2019-03-24T04:37:47.929Z,31.83
2019-03-24T04:40:16.402Z,34.50
2019-03-24T04:42:44.892Z,33.33
2019-03-24T04:45:13.703Z,30.43
2019-03-24T04:47:42.246Z,32.67
2019-03-24T04:50:11.122Z,36.83
2019-03-24T04:52:39.803Z,33.13
2019-03-24T04:55:08.803Z,34.27
2019-03-24T04:57:37.301Z,30.57
2019-03-24T05:00:09.667Z,28.80
2019-03-24T05:02:38.163Z,28.43
2019-03-24T05:05:07.985Z,33.70
2019-03-24T05:07:36.816Z,33.10
2019-03-24T05:10:06.828Z,29.73
2019-03-24T05:12:35.311Z,32.90
2019-03-24T05:15:03.775Z,28.80
2019-03-24T05:17:32.261Z,29.70
2019-03-24T05:20:00.731Z,30.43
2019-03-24T05:22:29.219Z,33.23
2019-03-24T05:24:57.690Z,36.53
2019-03-24T05:27:26.177Z,29.23
2019-03-24T05:29:54.647Z,35.03
2019-03-24T05:32:23.136Z,32.93
2019-03-24T05:34:51.601Z,40.53
2019-03-24T05:37:20.088Z,31.13
2019-03-24T05:39:48.554Z,32.27
2019-03-24T05:42:17.044Z,34.90
2019-03-24T05:44:45.513Z,35.07
2019-03-24T05:47:14.002Z,29.67
2019-03-24T05:49:42.464Z,34.13
2019-03-24T05:52:10.958Z,34.53
2019-03-24T05:54:39.534Z,35.57
2019-03-24T05:57:08.027Z,31.50
2019-03-24T05:59:36.491Z,33.07
2019-03-24T06:02:04.980Z,35.77
2019-03-24T06:04:33.443Z,35.00
2019-03-24T06:07:01.938Z,37.60
2019-03-24T06:09:30.398Z,35.90
2019-03-24T06:11:58.884Z,31.90
2019-03-24T06:14:27.342Z,33.53
2019-03-24T06:16:55.844Z,30.93
2019-03-24T06:19:24.316Z,28.80
2019-03-24T06:21:52.809Z,30.00
2019-03-24T06:24:21.277Z,35.90
2019-03-24T06:26:49.770Z,37.37
2019-03-24T06:29:18.239Z,36.80
2019-03-24T06:31:46.728Z,31.43
2019-03-24T06:34:15.192Z,32.63
2019-03-24T06:36:43.689Z,41.00
2019-03-24T06:39:12.165Z,33.27
2019-03-24T06:41:40.627Z,38.43
2019-03-24T06:44:09.123Z,36.13
2019-03-24T06:46:37.591Z,34.43
2019-03-24T06:49:06.093Z,29.10
2019-03-24T06:51:34.552Z,33.83
2019-03-24T06:54:03.044Z,36.90
2019-03-24T06:56:31.512Z,38.53
2019-03-24T06:59:00.005Z,33.20
2019-03-24T07:01:28.484Z,32.97
2019-03-24T07:03:56.971Z,33.07
2019-03-24T07:06:25.447Z,36.50
2019-03-24T07:08:53.931Z,35.30
2019-03-24T07:11:22.395Z,38.87
2019-03-24T07:13:50.895Z,35.50
2019-03-24T07:16:19.366Z,35.67
2019-03-24T07:18:47.883Z,35.27
2019-03-24T07:21:16.359Z,30.37
2019-03-24T07:23:44.849Z,44.47
2019-03-24T07:26:13.319Z,36.63
2019-03-24T07:28:42.099Z,39.97
2019-03-24T07:31:10.575Z,34.43
2019-03-24T07:33:39.659Z,38.37
2019-03-24T07:36:08.115Z,39.93
2019-03-24T07:38:36.613Z,40.63
2019-03-24T07:41:05.152Z,38.60
2019-03-24T07:43:33.758Z,42.37
2019-03-24T07:48:57.249Z,46.37
2019-03-24T07:51:32.474Z,42.57
2019-03-24T07:54:00.986Z,41.77
2019-03-24T07:56:29.529Z,44.03
2019-03-24T07:58:58.202Z,45.20
2019-03-24T08:01:26.872Z,47.43
2019-03-24T08:03:55.379Z,49.07
2019-03-24T08:06:27.046Z,44.13
2019-03-24T08:08:55.570Z,45.97
2019-03-24T08:11:24.119Z,46.13
2019-03-24T08:13:53.991Z,45.27
2019-03-24T08:16:35.020Z,44.43
2019-03-24T08:19:03.736Z,42.10
2019-03-24T08:21:32.386Z,47.37
2019-03-24T08:24:01.006Z,41.83
2019-03-24T08:26:30.057Z,43.07
2019-03-24T08:29:01.916Z,44.13
2019-03-24T08:31:30.728Z,37.27
2019-03-24T08:33:59.652Z,44.27
2019-03-24T08:36:29.132Z,44.80
2019-03-24T08:38:57.632Z,47.33
2019-03-24T08:41:26.150Z,41.10
2019-03-24T08:43:54.824Z,42.83
2019-03-24T08:46:23.302Z,40.73
2019-03-24T08:48:51.855Z,53.93
2019-03-24T08:51:20.360Z,46.73
2019-03-24T08:54:36.869Z,44.30
2019-03-24T08:59:59.733Z,42.90
2019-03-24T09:02:28.280Z,52.43
2019-03-24T09:04:56.870Z,55.53
2019-03-24T09:07:25.375Z,42.37
2019-03-24T09:09:54.021Z,58.63
2019-03-24T09:12:22.516Z,42.50
2019-03-24T09:14:55.035Z,41.77
2019-03-24T09:17:41.330Z,46.77
2019-03-24T09:20:10.579Z,44.70
2019-03-24T09:22:39.069Z,54.13
2019-03-24T09:25:10.028Z,37.43
2019-03-24T09:27:38.620Z,42.87
2019-03-24T09:30:27.648Z,50.27
2019-03-24T09:32:56.139Z,45.33
2019-03-24T09:35:24.634Z,43.23
2019-03-24T09:37:53.256Z,50.73
2019-03-24T09:40:27.221Z,53.35
2019-03-24T09:42:57.038Z,36.03
2019-03-24T09:45:25.605Z,46.33
2019-03-24T09:47:54.068Z,46.13
2019-03-24T09:50:22.566Z,39.00
2019-03-24T09:52:51.033Z,33.15
2019-03-24T09:55:19.531Z,33.13
2019-03-24T09:57:48.938Z,32.42
2019-03-24T10:00:17.532Z,29.90
2019-03-24T10:02:46.005Z,34.60
2019-03-24T10:05:15.241Z,30.70
2019-03-24T10:07:43.720Z,31.50
2019-03-24T10:10:14.312Z,26.83
2019-03-24T10:12:42.771Z,39.53
2019-03-24T10:15:12.752Z,54.00
2019-03-24T10:17:41.234Z,32.05
2019-03-24T10:20:10.769Z,27.70
2019-03-24T10:22:39.232Z,22.37
2019-03-24T10:25:07.791Z,17.70
2019-03-24T10:27:36.254Z,22.40
2019-03-24T10:30:06.987Z,22.22
2019-03-24T10:32:35.465Z,29.57
2019-03-24T10:35:05.504Z,27.35
2019-03-24T10:37:33.983Z,20.17
2019-03-24T10:40:02.501Z,22.52
2019-03-24T10:42:30.959Z,20.35
2019-03-24T10:44:59.478Z,21.40
2019-03-24T10:47:27.948Z,21.33
2019-03-24T10:49:56.457Z,29.00
2019-03-24T10:52:24.933Z,27.37
2019-03-24T10:54:53.426Z,25.43
2019-03-24T10:57:21.922Z,24.23
2019-03-24T10:59:50.417Z,20.02
2019-03-24T11:02:18.890Z,30.93
2019-03-24T11:04:47.397Z,24.47
2019-03-24T11:07:15.867Z,26.82
2019-03-24T11:09:45.161Z,27.33
2019-03-24T11:12:13.799Z,24.00
2019-03-24T11:14:42.300Z,20.37
2019-03-24T11:17:10.757Z,24.23
2019-03-24T11:19:39.230Z,33.70
2019-03-24T11:22:07.735Z,23.12
2019-03-24T11:24:36.223Z,25.25
2019-03-24T11:27:04.731Z,30.20
2019-03-24T11:29:33.200Z,29.17
2019-03-24T11:32:01.710Z,24.50
2019-03-24T11:34:30.189Z,25.77
2019-03-24T11:36:58.698Z,25.62
2019-03-24T11:39:27.183Z,23.03
2019-03-24T11:41:55.683Z,26.23
2019-03-24T11:44:24.213Z,31.70
2019-03-24T11:46:52.802Z,37.63
2019-03-24T11:49:21.438Z,28.12
2019-03-24T11:51:49.927Z,28.10
2019-03-24T11:54:18.403Z,23.83
2019-03-24T11:56:46.900Z,27.17
2019-03-24T11:59:15.442Z,24.83
2019-03-24T12:01:43.938Z,24.20
2019-03-24T12:04:12.405Z,17.07
2019-03-24T12:06:40.896Z,20.33
2019-03-24T12:09:09.373Z,22.53
2019-03-24T12:11:37.867Z,21.07
2019-03-24T12:14:06.345Z,27.90
2019-03-24T12:16:34.904Z,21.57
2019-03-24T12:19:03.369Z,20.12
2019-03-24T12:21:31.869Z,22.37
2019-03-24T12:24:00.338Z,25.50
2019-03-24T12:26:28.834Z,25.57
2019-03-24T12:28:57.339Z,27.27
2019-03-24T12:31:25.807Z,24.25
2019-03-24T12:33:54.292Z,24.10
2019-03-24T12:36:22.796Z,24.90
2019-03-24T12:38:51.273Z,21.43
2019-03-24T12:41:19.776Z,25.73
2019-03-24T12:43:48.247Z,24.47
2019-03-24T12:46:16.751Z,20.25
2019-03-24T12:48:45.228Z,20.50
2019-03-24T12:51:13.725Z,26.07
2019-03-24T12:53:42.196Z,23.60
2019-03-24T12:56:10.694Z,27.23
2019-03-24T12:58:39.161Z,28.17
2019-03-24T13:01:07.653Z,26.90
2019-03-24T13:03:36.130Z,29.53
2019-03-24T13:06:04.800Z,22.27
2019-03-24T13:08:33.316Z,28.07
2019-03-24T13:11:01.814Z,23.83
2019-03-24T13:13:30.297Z,28.87
2019-03-24T13:15:59.642Z,28.47
2019-03-24T13:18:28.126Z,24.60
2019-03-24T13:20:56.628Z,25.83
2019-03-24T13:23:25.101Z,22.03
2019-03-24T13:25:53.605Z,24.93
2019-03-24T13:28:22.073Z,25.37
2019-03-24T13:30:50.550Z,22.37
2019-03-24T13:33:19.047Z,24.73
2019-03-24T13:35:49.160Z,23.73
2019-03-24T13:38:17.655Z,25.70
2019-03-24T13:40:46.127Z,22.97
2019-03-24T13:43:14.624Z,26.10
2019-03-24T13:45:43.092Z,21.90
2019-03-24T13:48:11.593Z,28.90
2019-03-24T13:50:40.063Z,35.47
2019-03-24T13:53:08.631Z,29.83
2019-03-24T13:55:37.093Z,25.30
2019-03-24T13:58:06.365Z,17.87
2019-03-24T14:00:34.841Z,20.87
2019-03-24T14:03:03.409Z,24.47
2019-03-24T14:05:31.986Z,19.00
2019-03-24T14:08:00.483Z,21.12
2019-03-24T14:10:28.952Z,24.60
2019-03-24T14:12:57.457Z,24.47
2019-03-24T14:15:25.933Z,21.67
2019-03-24T14:17:54.423Z,20.50
2019-03-24T14:20:22.889Z,18.97
2019-03-24T14:22:51.382Z,21.80
2019-03-24T14:25:19.849Z,19.20
2019-03-24T14:27:48.342Z,19.30
2019-03-24T14:30:18.592Z,18.33
2019-03-24T14:32:47.171Z,23.73
2019-03-24T14:35:15.669Z,22.10
2019-03-24T14:37:44.147Z,22.33
2019-03-24T14:40:14.438Z,20.73
2019-03-24T14:42:42.933Z,21.07
2019-03-24T14:45:11.741Z,18.53
2019-03-24T14:47:40.310Z,20.23
2019-03-24T14:50:09.327Z,21.10
2019-03-24T14:52:37.830Z,21.17
2019-03-24T14:55:06.532Z,18.33
2019-03-24T14:57:35.040Z,22.87
2019-03-24T15:00:04.944Z,22.43
2019-03-24T15:02:33.436Z,21.97
2019-03-24T15:05:01.901Z,19.27
2019-03-24T15:07:30.412Z,24.33
2019-03-24T15:09:58.887Z,25.20
2019-03-24T15:12:27.378Z,28.23
2019-03-24T15:14:55.886Z,24.83
2019-03-24T15:17:27.207Z,25.30
2019-03-24T15:19:55.686Z,23.40
2019-03-24T15:22:24.182Z,20.40
2019-03-24T15:24:52.651Z,20.47
2019-03-24T15:27:21.144Z,20.67
2019-03-24T15:29:49.615Z,24.00
2019-03-24T15:32:18.121Z,19.53
2019-03-24T15:34:46.621Z,23.33
2019-03-24T15:37:15.112Z,21.47
2019-03-24T15:39:43.585Z,21.97
2019-03-24T15:42:12.081Z,22.67
2019-03-24T15:44:40.548Z,22.73
2019-03-24T15:47:09.043Z,21.20
2019-03-24T15:49:37.513Z,23.40
2019-03-24T15:52:06.017Z,28.83
2019-03-24T15:54:34.484Z,23.07
2019-03-24T15:57:02.994Z,22.53
2019-03-24T15:59:31.534Z,25.50
2019-03-24T16:02:00.009Z,19.93
2019-03-24T16:04:28.504Z,23.43
2019-03-24T16:06:56.979Z,22.53
2019-03-24T16:09:25.557Z,22.23
2019-03-24T16:11:54.033Z,22.97
2019-03-24T16:14:22.532Z,22.23
2019-03-24T16:16:51.001Z,23.07
2019-03-24T16:19:19.488Z,21.83
2019-03-24T16:21:47.957Z,18.20
2019-03-24T16:24:16.451Z,19.93
2019-03-24T16:26:44.924Z,19.13
2019-03-24T16:29:13.410Z,18.70
2019-03-24T16:31:41.884Z,21.17
2019-03-24T16:34:10.393Z,20.77
2019-03-24T16:36:38.878Z,20.20
2019-03-24T16:39:10.336Z,21.53
2019-03-24T16:41:38.814Z,25.03
2019-03-24T16:44:07.306Z,25.03
2019-03-24T16:46:35.785Z,24.20
2019-03-24T16:49:04.320Z,22.83
2019-03-24T16:51:38.558Z,23.13
2019-03-24T16:54:03.005Z,24.90
2019-03-24T16:56:31.536Z,28.73
2019-03-24T16:59:00.038Z,21.80
2019-03-24T17:01:28.506Z,20.60
2019-03-24T17:03:57.004Z,20.50
2019-03-24T17:06:25.469Z,19.30
2019-03-24T17:08:53.954Z,23.47
2019-03-24T17:11:22.432Z,24.63
2019-03-24T17:13:50.912Z,17.93
2019-03-24T17:16:19.393Z,18.47
2019-03-24T17:18:47.877Z,19.70
2019-03-24T17:21:16.351Z,17.00
2019-03-24T17:23:44.840Z,23.40
2019-03-24T17:26:13.309Z,23.17
2019-03-24T17:28:41.807Z,21.00
2019-03-24T17:31:10.273Z,21.37
2019-03-24T17:33:38.775Z,18.60
2019-03-24T17:36:07.422Z,23.80
2019-03-24T17:38:35.918Z,22.53
2019-03-24T17:41:04.390Z,22.13
2019-03-24T17:43:32.882Z,21.93
2019-03-24T17:46:01.358Z,19.37
2019-03-24T17:48:29.853Z,16.10
2019-03-24T17:50:58.333Z,20.57
2019-03-24T17:53:26.817Z,19.03
2019-03-24T17:55:55.354Z,20.40
2019-03-24T17:58:23.848Z,19.77
2019-03-24T18:00:53.964Z,20.63
2019-03-24T18:03:22.459Z,15.93
2019-03-24T18:05:51.100Z,19.33
2019-03-24T18:08:19.603Z,17.73
2019-03-24T18:10:48.062Z,17.13
2019-03-24T18:13:16.556Z,18.27
2019-03-24T18:15:45.020Z,19.17
2019-03-24T18:18:13.513Z,19.30
2019-03-24T18:20:41.990Z,15.20
2019-03-24T18:23:10.471Z,15.87
2019-03-24T18:25:38.936Z,18.13
2019-03-24T18:28:07.406Z,16.30
2019-03-24T18:30:35.886Z,21.80
2019-03-24T18:33:04.487Z,14.50
2019-03-24T18:35:33.050Z,16.60
2019-03-24T18:38:01.515Z,17.07
2019-03-24T18:40:30.015Z,20.63
2019-03-24T18:42:58.476Z,20.97
2019-03-24T18:45:26.971Z,17.83
2019-03-24T18:47:55.427Z,27.27
2019-03-24T18:50:23.916Z,20.93
2019-03-24T18:52:52.381Z,25.23
2019-03-24T18:55:20.868Z,23.23
2019-03-24T18:57:49.335Z,26.30
2019-03-24T19:00:18.878Z,25.67
2019-03-24T19:02:47.337Z,28.30
2019-03-24T19:05:15.966Z,27.10
2019-03-24T19:07:44.432Z,25.37
2019-03-24T19:10:14.874Z,22.03
2019-03-24T19:12:43.340Z,29.27
2019-03-24T19:15:14.780Z,24.13
2019-03-24T19:17:43.243Z,23.30
2019-03-24T19:20:12.078Z,21.93
2019-03-24T19:22:40.718Z,22.90
2019-03-24T19:25:10.242Z,19.00
2019-03-24T19:27:39.058Z,20.23
2019-03-24T19:30:10.602Z,25.83
2019-03-24T19:32:39.149Z,23.43
2019-03-24T19:35:08.485Z,19.20
2019-03-24T19:37:37.483Z,21.43
2019-03-24T19:40:09.151Z,19.40
2019-03-24T19:42:37.907Z,19.33
2019-03-24T19:45:06.927Z,25.00
2019-03-24T19:47:35.736Z,18.13
2019-03-24T19:50:07.130Z,25.33
2019-03-24T19:52:44.407Z,23.60
2019-03-24T19:55:07.644Z,29.37
2019-03-24T19:57:36.485Z,23.60
2019-03-24T20:00:06.969Z,29.60
2019-03-24T20:02:35.788Z,28.27
2019-03-24T20:05:05.581Z,24.70
2019-03-24T20:07:34.401Z,21.97
2019-03-24T20:10:03.382Z,23.67
2019-03-24T20:12:31.849Z,24.53
2019-03-24T20:15:00.380Z,22.67
2019-03-24T20:17:28.811Z,22.83
2019-03-24T20:19:57.300Z,29.37
2019-03-24T20:22:25.773Z,26.10
2019-03-24T20:24:54.261Z,26.20
2019-03-24T20:27:22.736Z,24.63
2019-03-24T20:29:51.240Z,27.63
2019-03-24T20:32:19.716Z,28.77
2019-03-24T20:34:48.205Z,27.23
2019-03-24T20:37:16.677Z,25.73
2019-03-24T20:39:45.219Z,26.87
2019-03-24T20:42:13.736Z,26.70
2019-03-24T20:44:42.179Z,31.83
2019-03-24T20:47:10.646Z,31.53
2019-03-24T20:49:39.132Z,28.70
2019-03-24T20:52:07.606Z,25.47
2019-03-24T20:54:36.099Z,27.93
2019-03-24T20:57:04.638Z,33.33
2019-03-24T20:59:33.142Z,29.07
2019-03-24T21:02:01.617Z,33.77
2019-03-24T21:04:30.109Z,30.93
2019-03-24T21:06:58.577Z,31.53
2019-03-24T21:09:27.070Z,31.33
2019-03-24T21:11:55.540Z,34.50
2019-03-24T21:14:24.000Z,28.90
2019-03-24T21:16:52.490Z,30.90
2019-03-24T21:19:20.955Z,33.63
2019-03-24T21:21:49.461Z,32.50
2019-03-24T21:24:17.928Z,28.27
2019-03-24T21:26:46.419Z,30.97
2019-03-24T21:29:14.881Z,31.97
2019-03-24T21:31:43.378Z,32.13
2019-03-24T21:34:11.851Z,35.53
2019-03-24T21:36:40.341Z,33.57
2019-03-24T21:39:08.944Z,34.23
2019-03-24T21:41:37.433Z,34.80
2019-03-24T21:44:05.904Z,34.40
2019-03-24T21:46:34.394Z,33.50
2019-03-24T21:49:02.865Z,32.30
2019-03-24T21:51:31.354Z,39.30
2019-03-24T21:53:59.824Z,38.47
2019-03-24T21:56:28.318Z,36.53
2019-03-24T21:58:56.777Z,34.37
2019-03-24T22:01:25.271Z,35.40
2019-03-24T22:03:53.740Z,37.43
2019-03-24T22:06:22.227Z,32.20
2019-03-24T22:08:50.689Z,35.03
2019-03-24T22:11:19.191Z,30.90
2019-03-24T22:13:47.654Z,38.63
2019-03-24T22:16:16.142Z,33.97
2019-03-24T22:18:44.620Z,38.27
2019-03-24T22:21:13.108Z,37.47
2019-03-24T22:23:51.815Z,44.93
2019-03-24T22:26:11.800Z,34.97
2019-03-24T22:28:40.264Z,33.47
2019-03-24T22:31:08.798Z,32.87
2019-03-24T22:33:37.225Z,30.80
2019-03-24T22:36:05.727Z,34.37
2019-03-24T22:38:34.194Z,39.50
2019-03-24T22:41:03.069Z,37.63
2019-03-24T22:43:31.529Z,40.93
2019-03-24T22:46:00.032Z,38.50
2019-03-24T22:48:28.508Z,34.83
2019-03-24T22:50:56.997Z,38.77
2019-03-24T22:53:25.462Z,37.57
2019-03-24T22:55:53.952Z,42.27
2019-03-24T22:58:22.423Z,40.33
2019-03-24T23:00:53.929Z,37.50
2019-03-24T23:03:25.071Z,41.13
2019-03-24T23:05:53.290Z,43.53
2019-03-24T23:08:21.819Z,37.97
2019-03-24T23:10:50.387Z,40.07
2019-03-24T23:13:18.865Z,37.63
2019-03-24T23:15:47.352Z,45.67
2019-03-24T23:18:15.821Z,41.70
2019-03-24T23:20:44.387Z,43.83
2019-03-24T23:23:12.862Z,41.23
2019-03-24T23:25:41.423Z,36.53
2019-03-24T23:28:09.882Z,41.77
2019-03-24T23:30:38.378Z,39.07
2019-03-24T23:33:06.925Z,37.57
2019-03-24T23:35:35.417Z,46.33
2019-03-24T23:38:03.884Z,40.97
2019-03-24T23:40:32.373Z,43.93
2019-03-24T23:43:00.836Z,42.80
2019-03-24T23:45:29.332Z,41.43
2019-03-24T23:47:57.798Z,37.80
2019-03-24T23:50:26.262Z,39.97
2019-03-24T23:52:54.797Z,39.83
2019-03-24T23:55:23.225Z,51.50
2019-03-24T23:57:51.716Z,49.73
